Time;durP1;ratioP1;P1;durP2;ratioP2;P2;SDS_P1;SDS_P2;PMS_P1;PMS_P2;Temp;Humidity;BMP_temperature;BMP_pressure;BME280_temperature;BME280_humidity;BME280_pressure;Samples;Min_cycle;Max_cycle;Signal;HPM_P1;HPM_P2
2022/10/25 00:01:46;;;;;;;22.85;12.23;;;13.40;99.90;;;;;;4937576;29;20133;-87
2022/10/25 00:10:16;;;;;;;19.40;12.00;;;13.00;99.90;;;;;;5501837;23;20884;-87
2022/10/25 00:12:45;;;;;;;21.13;11.90;;;13.10;99.90;;;;;;4937363;29;20051;-87
2022/10/25 00:15:13;;;;;;;22.73;11.80;;;13.70;99.90;;;;;;4954357;29;20479;-87
2022/10/25 00:17:39;;;;;;;20.02;11.30;;;13.00;99.90;;;;;;4954224;29;20101;-86
2022/10/25 00:20:05;;;;;;;25.85;12.75;;;12.90;99.90;;;;;;4937212;29;20047;-86
2022/10/25 00:22:30;;;;;;;21.52;12.23;;;12.90;99.90;;;;;;4954384;29;20064;-87
2022/10/25 00:24:56;;;;;;;22.10;11.55;;;13.90;99.90;;;;;;4936321;29;20047;-86
2022/10/25 00:27:22;;;;;;;21.13;12.00;;;13.10;99.90;;;;;;4937114;29;20051;-87
2022/10/25 00:30:05;;;;;;;21.45;11.07;;;12.90;99.90;;;;;;4954096;29;20400;-87
2022/10/25 00:32:51;;;;;;;22.83;11.65;;;12.90;99.90;;;;;;4936567;29;20074;-87
2022/10/25 00:35:18;;;;;;;22.58;11.63;;;12.90;99.90;;;;;;4938787;29;20130;-86
2022/10/25 00:37:43;;;;;;;24.00;11.77;;;12.80;99.90;;;;;;4941250;29;20388;-86
2022/10/25 00:40:10;;;;;;;21.10;11.10;;;14.00;99.90;;;;;;4939406;29;20047;-86
2022/10/25 00:42:55;;;;;;;22.02;11.02;;;12.80;99.90;;;;;;4958415;29;20039;-86
2022/10/25 00:45:40;;;;;;;21.17;11.13;;;12.60;99.90;;;;;;4952245;29;20101;-86
2022/10/25 00:48:11;;;;;;;;;;;12.50;99.90;;;;;;4941453;29;20051;-87
2022/10/25 00:50:53;;;;;;;21.25;11.27;;;12.40;99.90;;;;;;4958121;29;19925;-87
2022/10/25 00:53:28;;;;;;;22.35;11.32;;;13.50;99.90;;;;;;4956725;29;20491;-86
2022/10/25 00:56:18;;;;;;;24.15;12.02;;;12.20;99.90;;;;;;4957559;29;20465;-86
2022/10/25 00:58:59;;;;;;;23.45;11.75;;;12.30;99.90;;;;;;4958378;29;20081;-87
2022/10/25 01:01:34;;;;;;;24.05;11.80;;;13.20;99.90;;;;;;4956905;29;20547;-87
2022/10/25 01:04:21;;;;;;;24.73;11.15;;;12.10;99.90;;;;;;4957516;29;20101;-86
2022/10/25 01:07:05;;;;;;;23.65;11.43;;;12.40;99.90;;;;;;4957128;29;20051;-87
2022/10/25 01:09:47;;;;;;;23.08;11.07;;;13.00;99.90;;;;;;4957548;29;20179;-87
2022/10/25 01:12:12;;;;;;;21.85;11.18;;;13.20;99.90;;;;;;4939565;29;20063;-86
2022/10/25 01:14:42;;;;;;;22.58;11.50;;;13.40;99.90;;;;;;4956930;29;20373;-87
2022/10/25 01:17:34;;;;;;;23.02;10.90;;;12.40;99.90;;;;;;4957170;29;20047;-87
2022/10/25 01:20:50;;;;;;;24.10;10.63;;;12.50;99.90;;;;;;4893300;29;20192;-85
2022/10/25 01:23:32;;;;;;;22.17;10.50;;;12.50;99.90;;;;;;4941268;29;20117;-87
2022/10/25 01:26:29;;;;;;;19.73;10.05;;;12.60;99.90;;;;;;4940397;29;20044;-86
2022/10/25 01:29:21;;;;;;;22.10;9.75;;;12.60;99.90;;;;;;4939349;29;20574;-87
2022/10/25 01:31:51;;;;;;;20.00;9.85;;;12.60;99.90;;;;;;4934679;29;20054;-86
2022/10/25 01:34:29;;;;;;;22.85;9.10;;;12.80;99.90;;;;;;4963659;23;20055;-87
2022/10/25 01:37:04;;;;;;;19.02;9.55;;;12.80;99.90;;;;;;4939664;29;20125;-86
2022/10/25 01:39:50;;;;;;;19.08;9.60;;;12.50;99.90;;;;;;4955951;29;20051;-87
2022/10/25 01:42:28;;;;;;;21.98;9.68;;;12.50;99.90;;;;;;4956191;29;20093;-86
2022/10/25 01:45:11;;;;;;;20.13;9.43;;;12.40;99.90;;;;;;4939512;29;20102;-86
2022/10/25 01:47:51;;;;;;;20.45;8.82;;;12.40;99.90;;;;;;4956504;29;20043;-86
2022/10/25 01:50:32;;;;;;;20.05;9.30;;;12.30;99.90;;;;;;4955953;29;20058;-86
2022/10/25 01:53:03;;;;;;;20.95;9.45;;;12.30;99.90;;;;;;4956684;29;20395;-87
2022/10/25 01:55:42;;;;;;;20.95;9.43;;;12.20;99.90;;;;;;4943304;29;20435;-86
2022/10/25 01:58:55;;;;;;;21.92;9.43;;;13.20;99.90;;;;;;4960399;29;20058;-86
2022/10/25 02:05:12;;;;;;;21.05;9.30;;;11.90;99.90;;;;;;5774356;23;20574;-86
2022/10/25 02:07:42;;;;;;;22.20;8.85;;;12.00;99.90;;;;;;4939157;29;20094;-86
2022/10/25 02:10:22;;;;;;;20.70;9.43;;;12.00;99.90;;;;;;4954888;29;20505;-86
2022/10/25 02:12:54;;;;;;;19.95;9.38;;;12.00;99.90;;;;;;4939178;29;20455;-86
2022/10/25 02:15:37;;;;;;;21.10;10.15;;;12.80;99.90;;;;;;4938962;29;20052;-86
2022/10/25 02:18:05;;;;;;;21.33;9.05;;;12.20;99.90;;;;;;4938578;29;20043;-86
2022/10/25 02:20:34;;;;;;;21.33;10.32;;;12.50;99.90;;;;;;4956184;29;20117;-86
2022/10/25 02:23:03;;;;;;;20.50;10.50;;;11.90;99.90;;;;;;4946031;23;20587;-86
2022/10/25 02:25:36;;;;;;;21.20;10.65;;;11.90;99.90;;;;;;4938008;29;20684;-86
2022/10/25 02:28:05;;;;;;;24.27;11.18;;;11.90;99.90;;;;;;4939414;29;20063;-87
2022/10/25 02:30:54;;;;;;;21.92;10.93;;;12.00;99.90;;;;;;4955991;29;20047;-87
2022/10/25 02:37:01;;;;;;;25.98;11.60;;;12.20;99.90;;;;;;4956133;29;20192;-87
2022/10/25 02:39:28;;;;;;;26.92;11.98;;;13.40;99.90;;;;;;4937973;29;20150;-87
2022/10/25 02:41:54;;;;;;;23.65;11.93;;;12.90;99.90;;;;;;4938915;29;20050;-86
2022/10/25 02:44:41;;;;;;;22.23;11.85;;;12.20;99.90;;;;;;4938247;29;20050;-87
2022/10/25 02:47:07;;;;;;;24.63;12.27;;;12.30;99.90;;;;;;4938203;29;20047;-87
2022/10/25 02:49:45;;;;;;;25.25;12.32;;;13.20;99.90;;;;;;4955684;29;20058;-87
2022/10/25 02:52:11;;;;;;;28.20;12.20;;;12.00;99.90;;;;;;4954964;29;20472;-87
2022/10/25 02:54:42;;;;;;;26.70;12.38;;;13.70;99.90;;;;;;4955376;29;20114;-86
2022/10/25 02:57:17;;;;;;;24.50;12.73;;;13.70;99.90;;;;;;4937639;29;20570;-87
2022/10/25 03:00:01;;;;;;;24.33;11.80;;;13.50;99.90;;;;;;4954999;29;20380;-87
2022/10/25 03:02:29;;;;;;;24.35;12.43;;;12.70;99.90;;;;;;4955362;29;20090;-87
2022/10/25 03:05:04;;;;;;;28.00;15.18;;;12.60;99.90;;;;;;4955642;29;20068;-86
2022/10/25 03:07:48;;;;;;;23.35;12.55;;;12.70;99.90;;;;;;4940040;29;20102;-86
2022/10/25 03:10:14;;;;;;;;;;;13.30;99.90;;;;;;4962812;29;20043;-86
2022/10/25 03:12:58;;;;;;;26.63;14.25;;;12.80;99.90;;;;;;4955508;29;19938;-86
2022/10/25 03:15:32;;;;;;;;;;;12.50;99.90;;;;;;4954931;29;20067;-87
2022/10/25 03:17:57;;;;;;;29.17;14.07;;;12.80;99.90;;;;;;4955235;29;20371;-87
2022/10/25 03:20:29;;;;;;;30.30;15.23;;;12.80;99.90;;;;;;4937153;29;20039;-86
2022/10/25 03:23:46;;;;;;;27.05;12.95;;;13.70;99.90;;;;;;4937716;28;20114;-86
2022/10/25 03:36:51;;;;;;;28.38;13.18;;;13.00;99.90;;;;;;4969182;23;20499;-87
2022/10/25 03:39:26;;;;;;;21.05;11.10;;;13.60;99.90;;;;;;4937369;29;20051;-86
2022/10/25 03:41:52;;;;;;;21.30;10.65;;;12.90;99.90;;;;;;4920654;29;20118;-87
2022/10/25 03:44:21;;;;;;;27.23;12.18;;;14.20;99.90;;;;;;4948959;29;20043;-87
2022/10/25 03:46:59;;;;;;;23.63;11.95;;;13.20;99.90;;;;;;4956626;29;20054;-87
2022/10/25 03:49:50;;;;;;;24.25;12.63;;;13.00;99.90;;;;;;4936970;29;20051;-86
2022/10/25 03:52:15;;;;;;;19.15;11.00;;;13.00;99.90;;;;;;4954949;29;20102;-86
2022/10/25 03:54:53;;;;;;;21.30;11.00;;;13.70;99.90;;;;;;4937439;29;20043;-87
2022/10/25 03:57:19;;;;;;;22.38;11.27;;;14.00;99.90;;;;;;4953867;29;20043;-87
2022/10/25 04:00:00;;;;;;;26.35;13.00;;;13.80;99.90;;;;;;4954815;29;20543;-87
2022/10/25 04:02:27;;;;;;;23.92;10.88;;;14.10;99.90;;;;;;4952429;28;20110;-87
2022/10/25 04:05:12;;;;;;;21.13;10.50;;;14.00;99.90;;;;;;4970181;28;20057;-86
2022/10/25 04:07:37;;;;;;;23.42;11.77;;;12.90;99.90;;;;;;4956287;28;20505;-87
2022/10/25 04:10:04;;;;;;;22.48;10.73;;;13.80;99.90;;;;;;4955206;28;20137;-87
2022/10/25 04:12:44;;;;;;;27.48;11.07;;;12.90;99.90;;;;;;4956392;28;20047;-87
2022/10/25 04:18:00;;;;;;;23.98;11.98;;;13.70;99.90;;;;;;4965299;23;20051;-87
2022/10/25 04:20:42;;;;;;;24.33;11.82;;;13.90;99.90;;;;;;4947126;29;20107;-86
2022/10/25 04:23:26;;;;;;;31.33;13.45;;;13.70;99.90;;;;;;4939197;29;20054;-87
2022/10/25 04:25:55;;;;;;;;;;;12.90;99.90;;;;;;4942888;23;20551;-87
2022/10/25 04:28:22;;;;;;;27.15;13.32;;;12.80;99.90;;;;;;4953879;29;20359;-87
2022/10/25 04:37:45;;;;;;;27.48;13.25;;;12.20;99.90;;;;;;4936517;29;20077;-87
2022/10/25 04:40:11;;;;;;;23.75;12.32;;;12.80;99.90;;;;;;4936788;29;20058;-87
2022/10/25 04:42:37;;;;;;;21.63;10.60;;;12.90;99.90;;;;;;4954762;29;20035;-88
2022/10/25 04:50:11;;;;;;;22.83;11.35;;;12.90;99.90;;;;;;5138760;23;20075;-86
2022/10/25 04:52:36;;;;;;;28.55;12.05;;;12.90;99.90;;;;;;4953144;29;20047;-86
2022/10/25 04:55:12;;;;;;;;;;;;;;;;;;;;;
2022/10/25 05:00:40;;;;;;;27.45;11.60;;;12.90;99.90;;;;;;4958232;23;20052;-86
2022/10/25 05:03:06;;;;;;;23.90;12.30;;;13.00;99.90;;;;;;4936971;29;20066;-86
2022/10/25 05:08:07;;;;;;;24.98;11.40;;;12.80;99.90;;;;;;5772235;23;20118;-86
2022/10/25 05:10:54;;;;;;;23.08;11.38;;;12.80;99.90;;;;;;4954302;29;20043;-87
2022/10/25 05:13:22;;;;;;;22.02;11.07;;;12.80;99.90;;;;;;4935944;29;20561;-86
2022/10/25 05:15:57;;;;;;;26.02;12.88;;;12.80;99.90;;;;;;4954061;29;20039;-87
2022/10/25 05:18:33;;;;;;;24.10;10.50;;;14.00;99.90;;;;;;4917476;29;20091;-86
2022/10/25 05:21:02;;;;;;;22.75;10.88;;;12.70;99.90;;;;;;4917793;29;20090;-86
2022/10/25 05:23:46;;;;;;;25.20;11.75;;;12.70;99.90;;;;;;4920871;29;20051;-87
2022/10/25 05:26:26;;;;;;;27.90;11.63;;;12.60;99.90;;;;;;4937105;29;20091;-87
2022/10/25 05:29:12;;;;;;;26.02;11.52;;;12.60;99.90;;;;;;4920981;29;20130;-87
2022/10/25 05:32:08;;;;;;;21.80;11.52;;;12.20;99.90;;;;;;4939975;29;20056;-87
2022/10/25 05:34:48;;;;;;;25.50;11.65;;;13.10;99.90;;;;;;4942163;29;20178;-87
2022/10/25 05:37:14;;;;;;;26.10;11.50;;;13.30;99.90;;;;;;4920677;29;20403;-86
2022/10/25 05:39:52;;;;;;;25.88;10.70;;;13.40;99.90;;;;;;4928895;23;20053;-86
2022/10/25 05:42:17;;;;;;;25.58;10.88;;;13.20;99.90;;;;;;4956191;29;20058;-86
2022/10/25 05:44:43;;;;;;;20.83;10.00;;;12.50;99.90;;;;;;4946400;23;20044;-87
2022/10/25 05:47:09;;;;;;;26.25;10.05;;;12.50;99.90;;;;;;4939208;29;20464;-87
2022/10/25 05:49:44;;;;;;;20.67;8.70;;;12.30;99.90;;;;;;4956468;29;20051;-86
2022/10/25 05:52:21;;;;;;;22.15;8.77;;;13.70;99.90;;;;;;4945286;23;20064;-86
2022/10/25 05:54:47;;;;;;;18.95;9.40;;;12.40;99.90;;;;;;4956261;29;20547;-87
2022/10/25 05:57:15;;;;;;;21.95;9.45;;;12.90;99.90;;;;;;4945189;23;20140;-87
2022/10/25 05:59:41;;;;;;;19.60;9.15;;;12.50;99.90;;;;;;4939824;29;20047;-87
2022/10/25 06:02:17;;;;;;;20.08;8.60;;;12.90;99.90;;;;;;4955744;29;20109;-86
2022/10/25 06:04:51;;;;;;;19.08;8.90;;;12.50;99.90;;;;;;4956710;29;20384;-87
2022/10/25 06:09:58;;;;;;;25.52;8.80;;;12.50;99.90;;;;;;4987998;23;20058;-86
2022/10/25 06:12:23;;;;;;;19.15;8.27;;;12.50;99.90;;;;;;4939805;29;20051;-85
2022/10/25 06:15:05;;;;;;;20.70;8.73;;;13.40;99.90;;;;;;4956188;29;20451;-86
2022/10/25 06:17:46;;;;;;;26.38;8.98;;;12.40;99.90;;;;;;4938523;29;20399;-84
2022/10/25 06:20:24;;;;;;;19.02;8.60;;;12.50;99.90;;;;;;4938614;29;20054;-84
2022/10/25 06:22:55;;;;;;;19.65;8.40;;;12.40;99.90;;;;;;4939272;29;20039;-85
2022/10/25 06:25:21;;;;;;;21.25;8.77;;;13.30;99.90;;;;;;4938036;29;20130;-84
2022/10/25 06:27:55;;;;;;;24.25;9.15;;;12.40;99.90;;;;;;4938833;29;20134;-85
2022/10/25 06:30:21;;;;;;;24.13;8.88;;;12.40;99.90;;;;;;4955252;29;20035;-85
2022/10/25 06:32:53;;;;;;;23.27;8.63;;;12.30;99.90;;;;;;4955663;28;20506;-85
2022/10/25 06:35:19;;;;;;;24.52;9.25;;;13.30;99.90;;;;;;4955552;29;20078;-84
2022/10/25 06:38:00;;;;;;;21.88;9.00;;;11.70;99.90;;;;;;4955758;29;20145;-85
2022/10/25 06:40:26;;;;;;;23.95;8.93;;;13.20;99.90;;;;;;4955682;29;20548;-85
2022/10/25 06:43:07;;;;;;;21.10;8.95;;;13.40;99.90;;;;;;4938900;29;20200;-85
2022/10/25 06:51:58;;;;;;;18.65;9.85;;;12.40;99.90;;;;;;5507849;23;20059;-85
2022/10/25 06:57:09;;;;;;;25.98;10.13;;;12.70;99.90;;;;;;4924865;29;20059;-84
2022/10/25 07:02:25;;;;;;;21.42;9.23;;;12.70;99.90;;;;;;5016671;23;20186;-85
2022/10/25 07:04:51;;;;;;;23.40;9.20;;;12.70;99.90;;;;;;4937938;29;20141;-85
2022/10/25 07:07:20;;;;;;;27.48;9.88;;;12.80;99.90;;;;;;4937214;29;20141;-85
2022/10/25 07:09:48;;;;;;;25.10;8.98;;;13.80;99.90;;;;;;4955017;29;20051;-85
2022/10/25 07:12:14;;;;;;;20.60;8.95;;;13.10;99.90;;;;;;4955401;29;20050;-85
2022/10/25 07:14:43;;;;;;;22.33;8.68;;;13.30;99.90;;;;;;4954936;29;20373;-85
2022/10/25 07:17:09;;;;;;;23.40;8.90;;;12.80;99.90;;;;;;4938039;29;20101;-85
2022/10/25 07:19:34;;;;;;;21.73;8.57;;;13.00;99.90;;;;;;4938058;29;20098;-85
2022/10/25 07:22:18;;;;;;;21.88;8.35;;;13.00;99.90;;;;;;4966236;29;20111;-85
2022/10/25 07:25:07;;;;;;;22.25;8.80;;;14.00;99.90;;;;;;4938371;29;20491;-85
2022/10/25 07:27:33;;;;;;;20.02;8.45;;;13.10;99.90;;;;;;4954364;29;20050;-85
2022/10/25 07:30:01;;;;;;;23.05;8.25;;;12.70;99.90;;;;;;4955142;29;20039;-87
2022/10/25 07:32:33;;;;;;;20.92;8.00;;;13.20;99.90;;;;;;4951655;29;20396;-86
2022/10/25 07:34:58;;;;;;;24.90;8.32;;;13.30;99.90;;;;;;4944706;29;20186;-86
2022/10/25 07:37:24;;;;;;;19.38;8.15;;;14.00;99.90;;;;;;4926886;29;20539;-85
2022/10/25 07:40:06;;;;;;;24.60;8.77;;;13.00;99.90;;;;;;4921256;29;20040;-83
2022/10/25 07:42:31;;;;;;;26.95;8.70;;;13.40;99.90;;;;;;4922953;23;20052;-86
2022/10/25 07:45:17;;;;;;;21.38;9.18;;;13.80;99.90;;;;;;4918120;29;20047;-85
2022/10/25 07:47:43;;;;;;;19.52;8.07;;;13.80;99.90;;;;;;4917789;29;20055;-86
2022/10/25 07:50:08;;;;;;;22.48;10.65;;;14.50;99.90;;;;;;4935362;29;20047;-84
2022/10/25 07:55:14;;;;;;;23.98;9.52;;;13.60;99.90;;;;;;5300305;23;20110;-84
2022/10/25 07:57:40;;;;;;;22.38;8.77;;;13.70;99.90;;;;;;4959323;29;20047;-84
2022/10/25 08:06:49;;;;;;;22.15;9.43;;;15.10;99.90;;;;;;4954681;29;20043;-85
2022/10/25 08:09:33;;;;;;;18.88;8.05;;;15.00;99.90;;;;;;4953493;29;20043;-85
2022/10/25 08:12:14;;;;;;;;;;;13.90;99.90;;;;;;4930716;29;20031;-84
2022/10/25 08:17:24;;;;;;;24.52;9.38;;;13.90;99.90;;;;;;4915210;23;20084;-85
2022/10/25 08:19:49;;;;;;;22.60;9.07;;;14.00;99.90;;;;;;4897470;29;20044;-85
2022/10/25 08:22:15;;;;;;;21.90;9.30;;;14.60;99.90;;;;;;4896172;29;20044;-87
2022/10/25 08:25:04;;;;;;;23.70;8.85;;;14.00;99.90;;;;;;4911399;29;20404;-87
2022/10/25 08:27:30;;;;;;;21.25;8.90;;;14.20;99.90;;;;;;4870353;29;20064;-85
2022/10/25 08:30:14;;;;;;;20.15;9.07;;;14.20;99.90;;;;;;4893193;29;20155;-85
2022/10/25 08:33:01;;;;;;;28.00;9.73;;;14.90;99.90;;;;;;4862677;29;20226;-85
2022/10/25 08:35:39;;;;;;;18.10;8.45;;;13.90;99.90;;;;;;4865682;29;20153;-85
2022/10/25 08:38:59;;;;;;;20.42;9.15;;;14.80;99.90;;;;;;4861246;29;20056;-84
2022/10/25 08:41:43;;;;;;;19.30;9.95;;;14.10;99.90;;;;;;4963976;23;20049;-84
2022/10/25 08:44:28;;;;;;;;;;;14.20;99.90;;;;;;4947214;23;20110;-85
2022/10/25 08:47:26;;;;;;;18.73;9.50;;;14.10;99.90;;;;;;4957293;29;19930;-85
2022/10/25 08:50:17;;;;;;;19.83;9.45;;;14.10;99.90;;;;;;4938724;29;20048;-85
2022/10/25 08:53:13;;;;;;;19.88;9.40;;;15.00;99.90;;;;;;4936419;29;20051;-85
2022/10/25 08:55:41;;;;;;;23.58;9.73;;;14.30;99.90;;;;;;4954708;28;20123;-85
2022/10/25 08:58:32;;;;;;;18.45;9.65;;;14.50;99.90;;;;;;4956390;29;20047;-84
2022/10/25 09:01:19;;;;;;;25.75;9.52;;;14.20;99.90;;;;;;4940292;29;20578;-85
2022/10/25 09:03:51;;;;;;;21.48;9.07;;;14.10;99.90;;;;;;4947729;29;20047;-85
2022/10/25 09:07:01;;;;;;;22.65;9.30;;;14.20;99.90;;;;;;4927987;29;20498;-84
2022/10/25 09:09:53;;;;;;;19.55;8.80;;;14.40;99.90;;;;;;4936820;29;20040;-85
2022/10/25 09:15:15;;;;;;;20.30;8.55;;;14.50;99.90;;;;;;4925722;23;20123;-83
2022/10/25 09:18:34;;;;;;;18.48;8.52;;;14.50;99.90;;;;;;4918357;29;20464;-85
2022/10/25 09:21:10;;;;;;;17.23;9.02;;;15.60;99.90;;;;;;4899767;29;20066;-84
2022/10/25 09:24:22;;;;;;;18.73;8.60;;;14.80;99.90;;;;;;4902082;29;20043;-84
2022/10/25 09:27:38;;;;;;;17.77;8.35;;;14.80;99.90;;;;;;4901180;29;20044;-84
2022/10/25 09:30:06;;;;;;;19.38;7.97;;;14.30;99.90;;;;;;4901376;29;20051;-83
2022/10/25 09:40:24;;;;;;;15.70;7.45;;;14.80;99.90;;;;;;4918966;29;20083;-84
2022/10/25 09:43:33;;;;;;;15.90;7.97;;;16.00;99.90;;;;;;4871177;29;20140;-84
2022/10/25 09:46:38;;;;;;;16.25;7.30;;;15.00;99.90;;;;;;4903642;29;20063;-85
2022/10/25 09:49:54;;;;;;;16.55;7.75;;;15.20;99.90;;;;;;4896582;29;20119;-84
2022/10/25 09:53:12;;;;;;;16.40;7.00;;;15.30;99.90;;;;;;4915932;29;20043;-84
2022/10/25 09:56:02;;;;;;;17.50;7.13;;;15.30;99.90;;;;;;4916242;29;20400;-84
2022/10/25 09:58:30;;;;;;;12.77;6.30;;;15.20;99.90;;;;;;4893579;29;20445;-84
2022/10/25 10:01:18;;;;;;;14.57;6.55;;;16.40;99.90;;;;;;4918444;29;20052;-84
2022/10/25 10:09:26;;;;;;;13.88;6.45;;;15.00;99.90;;;;;;5467288;23;20166;-85
2022/10/25 10:11:57;;;;;;;14.10;5.68;;;15.90;99.90;;;;;;4920415;29;20134;-85
2022/10/25 10:14:32;;;;;;;17.58;5.80;;;15.00;99.90;;;;;;4936840;29;20054;-84
2022/10/25 10:17:02;;;;;;;13.68;6.03;;;15.60;99.90;;;;;;4926170;23;20075;-84
2022/10/25 10:20:20;;;;;;;12.85;5.70;;;15.00;99.90;;;;;;4957074;23;20408;-85
2022/10/25 10:23:13;;;;;;;12.63;5.20;;;14.40;99.90;;;;;;4928878;29;20092;-85
2022/10/25 10:26:16;;;;;;;14.55;5.05;;;14.60;99.90;;;;;;4945903;29;20048;-86
2022/10/25 10:29:02;;;;;;;13.90;5.18;;;14.80;99.90;;;;;;4947529;29;20040;-86
2022/10/25 10:31:51;;;;;;;13.55;5.28;;;15.20;99.90;;;;;;4928740;29;20138;-84
2022/10/25 10:34:26;;;;;;;14.30;4.80;;;15.20;99.90;;;;;;4929256;29;20385;-84
2022/10/25 10:37:19;;;;;;;13.43;4.93;;;15.70;99.90;;;;;;4929192;29;20043;-85
2022/10/25 10:40:24;;;;;;;12.55;4.88;;;15.60;99.90;;;;;;4951537;28;20035;-85
2022/10/25 10:43:31;;;;;;;13.68;5.30;;;15.60;99.90;;;;;;4949580;28;20127;-87
2022/10/25 10:46:16;;;;;;;14.68;4.68;;;15.40;99.90;;;;;;4950070;28;20043;-86
2022/10/25 10:48:52;;;;;;;11.48;4.40;;;15.80;99.90;;;;;;4955055;29;20092;-85
2022/10/25 10:51:51;;;;;;;14.82;4.97;;;16.50;99.90;;;;;;4937462;29;20035;-86
2022/10/25 10:54:35;;;;;;;14.05;4.18;;;15.30;99.90;;;;;;4937757;29;20051;-87
2022/10/25 10:57:05;;;;;;;14.48;4.50;;;15.40;99.90;;;;;;4955764;29;20059;-87
2022/10/25 10:59:54;;;;;;;10.80;4.03;;;15.90;99.90;;;;;;4946248;29;20122;-85
2022/10/25 11:02:47;;;;;;;13.60;3.80;;;15.40;99.90;;;;;;4956027;29;20050;-88
2022/10/25 11:05:41;;;;;;;12.50;3.97;;;15.40;99.90;;;;;;4938084;29;20043;-86
2022/10/25 11:08:25;;;;;;;11.00;3.75;;;14.80;99.90;;;;;;4942987;29;20052;-90
2022/10/25 11:14:24;;;;;;;12.55;3.67;;;15.50;99.90;;;;;;5255460;23;20043;-91
2022/10/25 11:17:23;;;;;;;14.18;5.40;;;15.50;99.90;;;;;;4926835;29;20062;-90
2022/10/25 11:20:27;;;;;;;14.07;5.00;;;15.50;99.90;;;;;;4926136;29;20515;-90
2022/10/25 11:23:13;;;;;;;50.55;26.25;;;15.40;99.90;;;;;;4930076;29;20411;-88
2022/10/25 11:25:45;;;;;;;35.10;16.77;;;15.40;99.90;;;;;;4928606;29;20040;-90
2022/10/25 11:28:52;;;;;;;47.63;26.45;;;15.50;99.90;;;;;;4927022;29;20051;-90
2022/10/25 11:31:23;;;;;;;13.05;4.68;;;15.50;99.90;;;;;;4930115;29;20043;-89
2022/10/25 11:34:31;;;;;;;17.35;6.57;;;16.70;99.90;;;;;;4930078;29;20062;-88
2022/10/25 11:37:17;;;;;;;14.63;6.65;;;15.70;99.90;;;;;;4947486;29;20047;-86
2022/10/25 11:40:31;;;;;;;14.05;8.95;;;15.60;99.90;;;;;;4946135;29;20090;-86
2022/10/25 11:43:31;;;;;;;10.98;4.18;;;15.60;99.90;;;;;;4937545;29;20435;-86
2022/10/25 11:46:44;;;;;;;14.02;6.20;;;15.60;99.90;;;;;;4954875;29;20054;-86
2022/10/25 11:49:43;;;;;;;12.82;7.40;;;16.20;99.90;;;;;;4927256;29;20475;-86
2022/10/25 11:52:24;;;;;;;18.67;11.48;;;16.40;99.90;;;;;;4934962;29;20043;-86
2022/10/25 11:55:24;;;;;;;13.73;5.05;;;16.50;99.90;;;;;;4917420;29;20059;-86
2022/10/25 11:58:11;;;;;;;14.02;7.88;;;16.40;99.90;;;;;;4918392;29;20055;-86
2022/10/25 12:01:05;;;;;;;12.15;3.80;;;16.30;99.90;;;;;;4935380;29;20515;-87
2022/10/25 12:03:52;;;;;;;12.13;4.53;;;16.20;99.90;;;;;;4929540;29;20055;-87
2022/10/25 12:06:46;;;;;;;12.70;3.70;;;16.30;99.90;;;;;;4936853;29;20098;-87
2022/10/25 12:10:02;;;;;;;8.57;3.03;;;16.40;99.90;;;;;;4939722;23;20051;-87
2022/10/25 12:18:09;;;;;;;12.80;6.13;;;16.80;99.90;;;;;;5433771;23;20051;-86
2022/10/25 12:20:56;;;;;;;10.60;3.47;;;16.90;99.90;;;;;;4944855;29;20040;-86
2022/10/25 12:30:36;;;;;;;12.52;4.13;;;16.30;99.90;;;;;;5049414;23;20110;-87
2022/10/25 12:36:54;;;;;;;9.10;3.03;;;16.00;99.90;;;;;;4947814;29;20139;-84
2022/10/25 12:53:04;;;;;;;11.48;3.65;;;16.60;99.90;;;;;;4948885;29;20062;-85
2022/10/25 12:59:32;;;;;;;10.18;3.38;;;16.60;99.90;;;;;;4888334;29;20087;-86
2022/10/25 13:02:47;;;;;;;13.68;3.58;;;16.70;99.90;;;;;;4878028;29;20053;-85
2022/10/25 13:09:28;;;;;;;9.52;3.88;;;16.50;99.90;;;;;;4882702;29;20508;-85
2022/10/25 13:12:18;;;;;;;11.82;3.80;;;16.20;99.90;;;;;;4897383;29;20626;-85
2022/10/25 13:14:49;;;;;;;10.85;3.60;;;16.30;99.90;;;;;;4899440;23;20047;-84
2022/10/25 13:17:15;;;;;;;12.40;3.50;;;16.30;99.90;;;;;;4937973;29;20063;-87
2022/10/25 13:20:26;;;;;;;9.57;2.95;;;17.20;99.90;;;;;;4920361;29;20051;-87
2022/10/25 13:22:51;;;;;;;9.15;2.72;;;17.70;99.90;;;;;;4957176;23;20051;-88
2022/10/25 13:28:49;;;;;;;9.95;2.63;;;16.60;99.90;;;;;;4936151;29;20064;-83
2022/10/25 13:31:44;;;;;;;11.27;3.20;;;16.60;99.90;;;;;;4920050;29;20510;-84
2022/10/25 13:36:56;;;;;;;8.85;3.00;;;16.70;99.90;;;;;;5164977;23;20047;-83
2022/10/25 13:46:46;;;;;;;13.13;4.10;;;16.80;99.90;;;;;;4956209;29;20163;-82
2022/10/25 13:49:40;;;;;;;12.55;3.95;;;17.00;99.90;;;;;;4956867;29;20047;-83
2022/10/25 13:52:26;;;;;;;11.40;3.20;;;17.10;99.90;;;;;;4938925;29;20496;-82
2022/10/25 13:58:00;;;;;;;12.82;3.45;;;17.10;99.90;;;;;;5105147;23;20059;-84
2022/10/25 14:00:40;;;;;;;9.70;3.60;;;16.80;99.90;;;;;;4950700;29;20386;-85
2022/10/25 14:03:08;;;;;;;11.18;3.97;;;16.80;99.90;;;;;;4944596;29;20032;-85
2022/10/25 14:06:21;;;;;;;16.40;8.65;;;17.80;99.90;;;;;;4926401;29;20058;-85
2022/10/25 14:09:25;;;;;;;14.30;6.30;;;16.40;99.90;;;;;;4942064;23;20458;-85
2022/10/25 14:16:25;;;;;;;;;;;;;;;;;;;;;
2022/10/25 14:23:05;;;;;;;11.40;4.13;;;17.00;99.90;;;;;;4956685;29;20046;-86
2022/10/25 14:26:23;;;;;;;21.13;13.93;;;17.90;99.90;;;;;;4957461;29;20050;-86
2022/10/25 14:29:13;;;;;;;16.73;8.88;;;16.70;99.90;;;;;;4971912;23;20048;-86
2022/10/25 14:35:10;;;;;;;21.85;11.70;;;16.40;99.90;;;;;;4861963;29;20661;-87
2022/10/25 14:37:45;;;;;;;11.98;4.40;;;16.30;99.90;;;;;;4868095;29;20068;-86
2022/10/25 14:42:53;;;;;;;28.55;17.88;;;16.30;99.90;;;;;;4953829;23;20052;-86
2022/10/25 14:45:28;;;;;;;11.02;4.78;;;16.40;99.90;;;;;;4928412;29;20124;-85
2022/10/25 14:47:54;;;;;;;16.52;8.18;;;16.40;99.90;;;;;;4945267;29;20377;-85
2022/10/25 14:50:23;;;;;;;11.60;5.13;;;16.30;99.90;;;;;;5749930;23;20085;-85
2022/10/25 15:00:38;;;;;;;20.95;6.32;;;15.80;99.90;;;;;;4942921;23;20059;-86
2022/10/25 15:03:24;;;;;;;13.30;7.07;;;16.50;99.90;;;;;;4919163;29;20189;-86
2022/10/25 15:06:19;;;;;;;15.50;6.38;;;15.70;99.90;;;;;;4934559;29;20054;-86
2022/10/25 15:16:22;;;;;;;11.13;5.90;;;15.90;99.90;;;;;;5014993;23;20142;-87
2022/10/25 15:19:10;;;;;;;13.57;6.45;;;15.80;99.90;;;;;;4931457;29;20080;-86
2022/10/25 15:21:50;;;;;;;11.98;5.93;;;15.70;99.90;;;;;;4969366;28;20150;-86
2022/10/25 15:24:19;;;;;;;13.38;5.88;;;15.70;99.90;;;;;;4955896;28;20518;-87
2022/10/25 15:26:52;;;;;;;14.07;7.25;;;15.70;99.90;;;;;;4957001;23;20055;-86
2022/10/25 15:29:47;;;;;;;12.00;6.03;;;16.00;99.90;;;;;;4954628;29;20055;-86
2022/10/25 15:32:53;;;;;;;17.92;10.70;;;15.70;99.90;;;;;;4940794;29;20415;-86
2022/10/25 15:35:47;;;;;;;14.60;6.97;;;15.70;99.90;;;;;;4937160;29;20087;-89
2022/10/25 15:38:19;;;;;;;13.75;6.18;;;15.70;99.90;;;;;;4954914;29;20044;-87
2022/10/25 15:40:46;;;;;;;13.27;6.20;;;15.70;99.90;;;;;;4937034;29;20039;-86
2022/10/25 15:43:11;;;;;;;13.07;5.72;;;15.70;99.90;;;;;;4953609;29;20043;-86
2022/10/25 15:45:38;;;;;;;14.18;6.35;;;16.60;99.90;;;;;;4927138;29;20115;-86
2022/10/25 15:48:05;;;;;;;14.15;6.00;;;15.60;99.90;;;;;;4937465;29;20039;-86
2022/10/25 15:50:31;;;;;;;13.05;6.28;;;15.60;99.90;;;;;;4927839;29;20046;-85
2022/10/25 15:52:57;;;;;;;15.65;6.78;;;15.60;99.90;;;;;;4942728;28;20439;-86
2022/10/25 15:55:46;;;;;;;14.43;5.90;;;15.60;99.90;;;;;;4941092;28;20047;-86
2022/10/25 15:58:21;;;;;;;14.57;6.40;;;15.80;99.90;;;;;;4936711;28;20043;-86
2022/10/25 16:00:50;;;;;;;12.38;6.03;;;16.40;99.90;;;;;;4941368;28;20459;-86
2022/10/25 16:03:22;;;;;;;14.27;5.70;;;15.40;99.90;;;;;;4922904;28;20062;-86
2022/10/25 16:05:54;;;;;;;14.80;6.30;;;16.20;99.90;;;;;;4933259;23;20087;-86
2022/10/25 16:08:25;;;;;;;16.80;7.38;;;15.30;99.90;;;;;;4922737;28;20446;-86
2022/10/25 16:13:31;;;;;;;18.98;6.75;;;15.00;99.90;;;;;;4906530;29;20446;-85
2022/10/25 16:15:58;;;;;;;18.75;7.18;;;15.00;99.90;;;;;;4885515;29;20081;-85
2022/10/25 16:18:23;;;;;;;14.13;6.35;;;14.80;99.90;;;;;;4889917;29;20048;-84
2022/10/25 16:20:55;;;;;;;13.13;6.10;;;14.80;99.90;;;;;;4889339;29;20549;-84
2022/10/25 16:23:23;;;;;;;15.23;5.93;;;14.70;99.90;;;;;;4891916;29;20063;-85
2022/10/25 16:25:52;;;;;;;15.38;5.93;;;14.60;99.90;;;;;;4891094;29;20076;-84
2022/10/25 16:28:18;;;;;;;14.68;6.15;;;15.40;99.90;;;;;;4887903;29;20404;-85
2022/10/25 16:30:56;;;;;;;15.90;6.55;;;14.40;99.90;;;;;;4906108;29;20040;-85
2022/10/25 16:33:22;;;;;;;14.73;5.95;;;14.30;99.90;;;;;;4895372;29;20123;-85
2022/10/25 16:35:54;;;;;;;16.42;5.65;;;14.10;99.90;;;;;;4903918;29;20139;-85